createdAt,value
2022-08-27T00:01:21.337Z,2.08
2022-08-27T00:03:48.186Z,4.75
2022-08-27T00:06:17.120Z,3.33
2022-08-27T00:08:45.727Z,4.35
2022-08-27T00:11:13.339Z,4.78
2022-08-27T00:13:40.943Z,3.88
2022-08-27T00:16:10.771Z,5.22
2022-08-27T00:18:38.166Z,3.03
2022-08-27T00:21:05.104Z,3.22
2022-08-27T00:23:34.607Z,2.70
2022-08-27T00:26:01.705Z,4.63
2022-08-27T00:28:29.831Z,6.35
2022-08-27T00:30:57.023Z,6.35
2022-08-27T00:33:24.606Z,3.33
2022-08-27T00:35:51.242Z,4.28
2022-08-27T00:38:22.574Z,2.65
2022-08-27T00:40:50.479Z,2.58
2022-08-27T00:43:25.674Z,3.95
2022-08-27T00:45:55.612Z,7.68
2022-08-27T00:48:28.446Z,5.03
2022-08-27T00:50:55.821Z,1.83
2022-08-27T00:53:26.632Z,7.15
2022-08-27T00:55:58.797Z,5.95
2022-08-27T00:58:32.639Z,3.72
2022-08-27T01:01:00.391Z,5.22
2022-08-27T01:03:27.124Z,2.90
2022-08-27T01:05:56.914Z,2.33
2022-08-27T01:08:26.710Z,3.58
2022-08-27T01:10:56.850Z,2.45
2022-08-27T01:13:53.472Z,3.72
2022-08-27T01:16:20.794Z,3.28
2022-08-27T01:18:49.236Z,4.57
2022-08-27T01:21:30.284Z,3.70
2022-08-27T01:24:05.127Z,2.25
2022-08-27T01:26:32.234Z,4.13
2022-08-27T01:28:59.211Z,3.08
2022-08-27T01:31:27.164Z,2.05
2022-08-27T01:33:57.717Z,4.60
2022-08-27T01:36:24.507Z,4.65
2022-08-27T01:38:51.186Z,1.95
2022-08-27T01:41:18.471Z,1.67
2022-08-27T01:43:47.197Z,3.35
2022-08-27T01:46:13.885Z,5.43
2022-08-27T01:48:42.080Z,4.68
2022-08-27T01:51:09.913Z,1.38
2022-08-27T01:53:36.613Z,4.63
2022-08-27T01:56:04.743Z,2.90
2022-08-27T01:58:32.506Z,4.53
2022-08-27T02:01:03.809Z,5.95
2022-08-27T02:03:30.772Z,6.50
2022-08-27T02:05:57.630Z,4.25
2022-08-27T02:08:24.326Z,8.98
2022-08-27T02:10:51.011Z,1.85
2022-08-27T02:13:18.714Z,4.05
2022-08-27T02:15:45.638Z,2.72
2022-08-27T02:18:13.896Z,3.47
2022-08-27T02:20:41.442Z,3.83
2022-08-27T02:23:08.897Z,1.75
2022-08-27T02:25:36.674Z,6.82
2022-08-27T02:28:05.148Z,2.70
2022-08-27T02:30:32.778Z,3.30
2022-08-27T02:33:01.228Z,2.88
2022-08-27T02:35:29.438Z,5.30
2022-08-27T02:37:56.978Z,1.65
2022-08-27T02:40:24.961Z,5.65
2022-08-27T02:42:51.932Z,4.13
2022-08-27T02:45:20.249Z,6.82
2022-08-27T02:47:48.177Z,3.80
2022-08-27T02:50:15.466Z,6.07
2022-08-27T02:52:42.434Z,4.80
2022-08-27T02:55:09.416Z,3.28
2022-08-27T02:57:36.972Z,4.43
2022-08-27T03:00:07.936Z,4.15
2022-08-27T03:02:34.620Z,4.10
2022-08-27T03:05:02.274Z,2.42
2022-08-27T03:07:28.810Z,3.30
2022-08-27T03:09:55.419Z,2.30
2022-08-27T03:12:22.923Z,5.13
2022-08-27T03:14:51.640Z,4.32
2022-08-27T03:17:37.081Z,5.95
2022-08-27T03:20:05.367Z,2.13
2022-08-27T03:22:32.825Z,4.40
2022-08-27T03:25:03.321Z,5.95
2022-08-27T03:27:29.880Z,9.95
2022-08-27T03:29:58.690Z,5.05
2022-08-27T03:32:28.840Z,2.72
2022-08-27T03:34:58.561Z,3.95
2022-08-27T03:37:25.808Z,3.40
2022-08-27T03:39:52.978Z,6.65
2022-08-27T03:42:19.579Z,4.47
2022-08-27T03:44:46.078Z,3.92
2022-08-27T03:47:12.742Z,6.82
2022-08-27T03:49:39.403Z,4.72
2022-08-27T03:52:06.382Z,5.32
2022-08-27T03:54:36.039Z,4.13
2022-08-27T03:57:02.829Z,4.47
2022-08-27T03:59:29.425Z,7.65
2022-08-27T04:01:56.564Z,2.35
2022-08-27T04:04:26.489Z,3.65
2022-08-27T04:06:53.043Z,4.88
2022-08-27T04:09:22.702Z,3.47
2022-08-27T04:11:49.366Z,3.13
2022-08-27T04:14:26.233Z,4.15
2022-08-27T04:16:54.989Z,5.45
2022-08-27T04:19:26.893Z,5.32
2022-08-27T04:21:54.562Z,2.33
2022-08-27T04:24:21.097Z,5.53
2022-08-27T04:26:48.562Z,9.13
2022-08-27T04:29:15.135Z,6.28
2022-08-27T04:31:42.660Z,4.45
2022-08-27T04:34:09.232Z,5.45
2022-08-27T04:36:36.679Z,4.10
2022-08-27T04:39:03.330Z,7.25
2022-08-27T04:41:33.462Z,4.50
2022-08-27T04:44:06.360Z,5.00
2022-08-27T04:46:37.296Z,4.20
2022-08-27T04:49:10.730Z,5.88
2022-08-27T04:51:39.921Z,4.57
2022-08-27T04:54:08.318Z,4.63
2022-08-27T04:56:36.794Z,9.18
2022-08-27T04:59:05.262Z,9.00
2022-08-27T05:01:32.417Z,5.82
2022-08-27T05:03:59.053Z,9.27
2022-08-27T05:06:26.639Z,7.38
2022-08-27T05:08:54.424Z,15.05
2022-08-27T05:11:22.694Z,6.25
2022-08-27T05:13:49.549Z,10.05
2022-08-27T05:16:25.442Z,8.57
2022-08-27T05:18:52.775Z,7.63
2022-08-27T05:21:20.974Z,4.57
2022-08-27T05:23:48.323Z,6.50
2022-08-27T05:26:15.719Z,8.70
2022-08-27T05:28:42.659Z,12.73
2022-08-27T05:31:12.200Z,9.68
2022-08-27T05:33:40.771Z,6.95
2022-08-27T05:36:14.466Z,6.57
2022-08-27T05:38:41.927Z,9.82
2022-08-27T05:41:15.114Z,9.02
2022-08-27T05:43:47.758Z,8.43
2022-08-27T05:46:18.959Z,9.77
2022-08-27T05:48:46.311Z,8.32
2022-08-27T05:51:19.771Z,10.88
2022-08-27T05:53:56.526Z,5.30
2022-08-27T05:56:26.097Z,10.70
2022-08-27T05:59:11.831Z,10.18
2022-08-27T06:01:45.903Z,13.48
2022-08-27T06:04:18.129Z,11.70
2022-08-27T06:06:45.577Z,12.43
2022-08-27T06:09:14.821Z,7.38
2022-08-27T06:11:42.307Z,14.30
2022-08-27T06:14:09.519Z,11.90
2022-08-27T06:16:38.055Z,10.85
2022-08-27T06:19:05.293Z,14.48
2022-08-27T06:21:32.195Z,5.70
2022-08-27T06:23:59.056Z,10.20
2022-08-27T06:26:26.803Z,6.25
2022-08-27T06:28:53.941Z,11.88
2022-08-27T06:31:23.591Z,16.17
2022-08-27T06:33:51.966Z,12.57
2022-08-27T06:36:21.635Z,12.13
2022-08-27T06:38:49.761Z,12.60
2022-08-27T06:41:23.392Z,6.10
2022-08-27T06:43:51.844Z,10.70
2022-08-27T06:46:22.222Z,13.23
2022-08-27T06:48:53.024Z,9.90
2022-08-27T06:51:26.384Z,7.90
2022-08-27T06:53:55.243Z,11.55
2022-08-27T06:56:22.802Z,13.13
2022-08-27T06:58:57.376Z,11.45
2022-08-27T07:01:30.486Z,11.40
2022-08-27T07:04:04.075Z,10.85
2022-08-27T07:06:33.523Z,9.25
2022-08-27T07:09:00.457Z,9.30
2022-08-27T07:11:28.942Z,12.32
2022-08-27T07:13:56.263Z,6.15
2022-08-27T07:16:24.629Z,9.13
2022-08-27T07:18:53.525Z,12.25
2022-08-27T07:21:21.382Z,10.23
2022-08-27T07:23:50.689Z,9.70
2022-08-27T07:26:19.707Z,14.02
2022-08-27T07:28:47.080Z,7.15
2022-08-27T07:31:17.844Z,8.77
2022-08-27T07:33:46.135Z,18.52
2022-08-27T07:36:18.954Z,8.38
2022-08-27T07:38:46.254Z,8.45
2022-08-27T07:41:24.188Z,8.07
2022-08-27T07:44:15.827Z,13.00
2022-08-27T07:46:47.980Z,6.80
2022-08-27T07:49:19.124Z,11.00
2022-08-27T07:51:46.230Z,12.35
2022-08-27T07:54:12.950Z,15.98
2022-08-27T07:56:39.495Z,6.85
2022-08-27T07:59:06.320Z,10.88
2022-08-27T08:01:33.056Z,7.28
2022-08-27T08:03:59.709Z,10.25
2022-08-27T08:06:27.053Z,10.05
2022-08-27T08:08:53.587Z,12.25
2022-08-27T08:11:20.401Z,8.15
2022-08-27T08:13:50.569Z,7.00
2022-08-27T08:16:18.195Z,12.43
2022-08-27T08:18:44.758Z,10.27
2022-08-27T08:21:14.810Z,9.85
2022-08-27T08:23:42.656Z,8.70
2022-08-27T08:26:12.083Z,5.57
2022-08-27T08:28:39.668Z,6.22
2022-08-27T08:31:07.717Z,11.55
2022-08-27T08:33:35.524Z,7.47
2022-08-27T08:36:07.879Z,6.13
2022-08-27T08:38:34.851Z,8.73
2022-08-27T08:41:02.091Z,6.32
2022-08-27T08:43:35.207Z,8.93
2022-08-27T08:46:26.549Z,8.13
2022-08-27T08:48:58.622Z,4.30
2022-08-27T08:51:41.864Z,5.85
2022-08-27T08:54:15.186Z,8.57
2022-08-27T08:56:57.223Z,8.45
2022-08-27T08:59:31.354Z,8.48
2022-08-27T09:01:58.225Z,4.97
2022-08-27T09:04:27.474Z,8.20
2022-08-27T09:07:20.574Z,8.77
2022-08-27T09:09:56.955Z,10.93
2022-08-27T09:12:30.647Z,7.57
2022-08-27T09:15:03.549Z,6.30
2022-08-27T09:17:32.573Z,5.32
2022-08-27T09:19:59.515Z,7.43
2022-08-27T09:22:43.213Z,11.30
2022-08-27T09:25:10.389Z,4.45
2022-08-27T09:27:41.616Z,7.57
2022-08-27T09:30:18.952Z,8.13
2022-08-27T09:32:45.521Z,9.40
2022-08-27T09:35:13.501Z,7.28
2022-08-27T09:37:43.921Z,6.60
2022-08-27T09:40:25.645Z,9.48
2022-08-27T09:42:56.179Z,9.30
2022-08-27T09:45:26.392Z,5.97
2022-08-27T09:48:10.291Z,8.60
2022-08-27T09:50:45.921Z,7.72
2022-08-27T09:53:23.992Z,8.50
2022-08-27T09:55:56.694Z,5.95
2022-08-27T09:58:48.030Z,4.78
2022-08-27T10:01:20.735Z,4.80
2022-08-27T10:03:48.134Z,4.78
2022-08-27T10:06:14.785Z,4.95
2022-08-27T10:08:42.978Z,7.57
2022-08-27T10:11:17.202Z,4.93
2022-08-27T10:13:56.792Z,5.78
2022-08-27T10:16:47.917Z,5.93
2022-08-27T10:19:18.745Z,4.30
2022-08-27T10:21:50.895Z,3.58
2022-08-27T10:24:20.398Z,9.93
2022-08-27T10:27:01.372Z,5.65
2022-08-27T10:29:47.554Z,5.53
2022-08-27T10:32:29.033Z,8.40
2022-08-27T10:35:20.355Z,5.85
2022-08-27T10:38:07.633Z,3.45
2022-08-27T10:41:01.871Z,4.10
2022-08-27T10:44:06.042Z,8.02
2022-08-27T10:46:57.012Z,4.43
2022-08-27T10:49:38.733Z,3.95
2022-08-27T10:52:20.085Z,4.53
2022-08-27T10:55:12.782Z,1.75
2022-08-27T10:58:02.423Z,6.63
2022-08-27T11:01:00.233Z,4.90
2022-08-27T11:03:45.580Z,3.80
2022-08-27T11:06:33.776Z,5.50
2022-08-27T11:09:12.697Z,6.60
2022-08-27T11:12:18.401Z,2.00
2022-08-27T11:15:01.181Z,4.40
2022-08-27T11:17:46.060Z,2.25
2022-08-27T11:20:15.791Z,1.30
2022-08-27T11:22:51.072Z,4.72
2022-08-27T11:25:35.952Z,2.90
2022-08-27T11:28:05.349Z,5.05
2022-08-27T11:30:42.064Z,2.53
2022-08-27T11:33:35.551Z,4.97
2022-08-27T11:36:09.734Z,4.65
2022-08-27T11:38:41.986Z,3.10
2022-08-27T11:41:45.091Z,4.55
2022-08-27T11:44:18.893Z,2.13
2022-08-27T11:46:48.719Z,2.72
2022-08-27T11:49:26.718Z,7.95
2022-08-27T11:52:00.041Z,1.92
2022-08-27T11:54:32.392Z,2.67
2022-08-27T11:56:59.947Z,3.17
2022-08-27T11:59:26.486Z,1.20
2022-08-27T12:01:55.944Z,4.07
2022-08-27T12:04:31.908Z,5.28
2022-08-27T12:07:07.263Z,4.75
2022-08-27T12:09:56.560Z,4.30
2022-08-27T12:12:36.335Z,1.00
2022-08-27T12:15:18.254Z,6.50
2022-08-27T12:18:16.626Z,4.38
2022-08-27T12:21:16.922Z,3.10
2022-08-27T12:24:04.546Z,2.80
2022-08-27T12:26:36.522Z,3.83
2022-08-27T12:29:53.391Z,2.00
2022-08-27T12:32:19.895Z,2.35
2022-08-27T12:35:02.310Z,1.92
2022-08-27T12:37:35.959Z,3.92
2022-08-27T12:40:12.000Z,1.20
2022-08-27T12:42:38.965Z,3.63
2022-08-27T12:45:05.941Z,2.90
2022-08-27T12:47:40.631Z,1.75
2022-08-27T12:50:12.014Z,2.15
2022-08-27T12:52:44.817Z,3.05
2022-08-27T12:55:23.585Z,1.05
2022-08-27T12:58:03.099Z,2.95
2022-08-27T13:00:38.695Z,3.03
2022-08-27T13:03:22.337Z,1.88
2022-08-27T13:05:51.063Z,2.75
2022-08-27T13:08:28.703Z,3.70
2022-08-27T13:10:55.645Z,3.47
2022-08-27T13:13:25.026Z,2.70
2022-08-27T13:15:58.579Z,0.90
2022-08-27T13:18:29.894Z,3.03
2022-08-27T13:21:04.066Z,2.35
2022-08-27T13:23:31.127Z,1.35
2022-08-27T13:26:04.131Z,3.08
2022-08-27T13:28:32.799Z,3.13
2022-08-27T13:31:00.163Z,3.17
2022-08-27T13:33:31.010Z,4.00
2022-08-27T13:35:57.736Z,2.15
2022-08-27T13:38:26.424Z,2.42
2022-08-27T13:41:06.299Z,5.28
2022-08-27T13:43:44.780Z,3.25
2022-08-27T13:46:48.638Z,6.07
2022-08-27T13:49:22.242Z,2.25
2022-08-27T13:51:50.368Z,1.95
2022-08-27T13:54:19.158Z,8.88
2022-08-27T13:56:49.064Z,1.60
2022-08-27T13:59:22.278Z,3.42
2022-08-27T14:02:09.551Z,3.17
2022-08-27T14:05:07.142Z,2.33
2022-08-27T14:07:37.778Z,1.00
2022-08-27T14:10:46.644Z,2.38
2022-08-27T14:13:15.961Z,4.28
2022-08-27T14:15:46.790Z,6.55
2022-08-27T14:18:42.097Z,2.67
2022-08-27T14:21:12.010Z,2.60
2022-08-27T14:23:38.532Z,6.22
2022-08-27T14:26:05.554Z,2.03
2022-08-27T14:28:32.100Z,2.85
2022-08-27T14:30:58.776Z,5.28
2022-08-27T14:33:25.390Z,2.97
2022-08-27T14:35:51.993Z,1.88
2022-08-27T14:38:22.568Z,5.10
2022-08-27T14:40:52.180Z,6.70
2022-08-27T14:43:20.726Z,1.27
2022-08-27T14:45:51.682Z,3.85
2022-08-27T14:48:21.117Z,6.90
2022-08-27T14:50:55.378Z,3.42
2022-08-27T14:53:21.979Z,4.05
2022-08-27T14:55:51.641Z,3.92
2022-08-27T14:58:18.770Z,1.65
2022-08-27T15:00:45.363Z,1.42
2022-08-27T15:03:12.169Z,2.63
2022-08-27T15:05:39.610Z,2.88
2022-08-27T15:08:07.571Z,1.33
2022-08-27T15:10:37.311Z,3.42
2022-08-27T15:13:03.929Z,9.30
2022-08-27T15:15:30.474Z,2.28
2022-08-27T15:17:57.074Z,4.88
2022-08-27T15:20:23.650Z,4.03
2022-08-27T15:22:52.267Z,4.80
2022-08-27T15:25:20.517Z,1.85
2022-08-27T15:27:47.150Z,2.28
2022-08-27T15:30:15.916Z,3.22
2022-08-27T15:32:45.974Z,2.40
2022-08-27T15:35:17.714Z,2.03
2022-08-27T15:37:45.387Z,3.40
2022-08-27T15:40:14.564Z,1.55
2022-08-27T15:42:41.963Z,4.18
2022-08-27T15:45:11.594Z,2.67
2022-08-27T15:47:38.291Z,2.53
2022-08-27T15:50:06.267Z,3.05
2022-08-27T15:52:40.404Z,2.08
2022-08-27T15:55:18.916Z,4.25
2022-08-27T15:57:45.551Z,0.95
2022-08-27T16:00:13.089Z,2.25
2022-08-27T16:02:41.628Z,2.97
2022-08-27T16:05:09.522Z,2.95
2022-08-27T16:07:36.123Z,2.45
2022-08-27T16:10:04.743Z,2.97
2022-08-27T16:12:31.341Z,2.45
2022-08-27T16:14:57.895Z,1.65
2022-08-27T16:17:26.539Z,3.05
2022-08-27T16:19:53.486Z,3.10
2022-08-27T16:22:20.061Z,1.60
2022-08-27T16:24:46.878Z,1.63
2022-08-27T16:27:14.163Z,2.15
2022-08-27T16:29:40.724Z,4.75
2022-08-27T16:32:14.381Z,3.92
2022-08-27T16:34:41.038Z,3.13
2022-08-27T16:37:07.594Z,2.60
2022-08-27T16:39:38.676Z,1.33
2022-08-27T16:42:10.632Z,3.05
2022-08-27T16:44:38.425Z,4.32
2022-08-27T16:47:06.371Z,1.65
2022-08-27T16:49:51.503Z,4.45
2022-08-27T16:52:20.845Z,3.25
2022-08-27T16:54:47.735Z,2.28
2022-08-27T16:57:15.418Z,5.40
2022-08-27T16:59:42.135Z,1.02
2022-08-27T17:02:25.516Z,2.05
2022-08-27T17:05:01.309Z,1.83
2022-08-27T17:07:44.100Z,1.10
2022-08-27T17:10:18.317Z,1.55
2022-08-27T17:12:47.258Z,2.15
2022-08-27T17:15:16.570Z,3.88
2022-08-27T17:17:43.634Z,1.30
2022-08-27T17:20:10.613Z,4.03
2022-08-27T17:22:37.449Z,4.70
2022-08-27T17:25:07.812Z,2.35
2022-08-27T17:27:34.456Z,2.13
2022-08-27T17:30:01.336Z,3.53
2022-08-27T17:32:30.350Z,3.38
2022-08-27T17:34:57.349Z,1.10
2022-08-27T17:37:23.879Z,3.03
2022-08-27T17:39:50.783Z,5.85
2022-08-27T17:42:18.520Z,1.58
2022-08-27T17:44:45.031Z,2.95
2022-08-27T17:47:11.627Z,0.90
2022-08-27T17:49:38.319Z,3.17
2022-08-27T17:52:10.549Z,1.02
2022-08-27T17:54:44.174Z,2.63
2022-08-27T17:59:46.249Z,1.45
2022-08-27T18:02:20.385Z,1.30
2022-08-27T18:04:48.641Z,1.17
2022-08-27T18:07:15.443Z,2.17
2022-08-27T18:09:42.651Z,4.50
2022-08-27T18:12:12.388Z,1.73
2022-08-27T18:14:39.133Z,1.63
2022-08-27T18:17:09.008Z,5.55
2022-08-27T18:19:45.730Z,2.78
2022-08-27T18:22:12.618Z,1.40
2022-08-27T18:24:39.395Z,4.82
2022-08-27T18:27:06.212Z,8.10
2022-08-27T18:29:33.281Z,3.92
2022-08-27T18:31:59.982Z,1.85
2022-08-27T18:34:27.751Z,1.45
2022-08-27T18:36:54.414Z,2.75
2022-08-27T18:39:21.284Z,4.05
2022-08-27T18:41:52.582Z,4.05
2022-08-27T18:44:19.625Z,4.32
2022-08-27T18:46:46.519Z,4.28
2022-08-27T18:49:13.166Z,1.80
2022-08-27T18:51:42.974Z,2.28
2022-08-27T18:54:12.959Z,3.05
2022-08-27T18:56:39.574Z,3.33
2022-08-27T18:59:07.024Z,1.27
2022-08-27T19:01:33.945Z,1.65
2022-08-27T19:04:01.056Z,8.52
2022-08-27T19:06:27.597Z,4.43
2022-08-27T19:08:54.482Z,4.03
2022-08-27T19:11:21.736Z,3.65
2022-08-27T19:13:50.736Z,9.60
2022-08-27T19:16:38.325Z,5.05
2022-08-27T19:19:05.615Z,6.55
2022-08-27T19:21:32.690Z,2.83
2022-08-27T19:23:59.289Z,5.88
2022-08-27T19:26:26.465Z,2.53
2022-08-27T19:28:53.798Z,8.27
2022-08-27T19:31:20.509Z,2.38
2022-08-27T19:33:47.245Z,2.67
2022-08-27T19:36:17.854Z,5.68
2022-08-27T19:38:45.805Z,4.85
2022-08-27T19:41:13.256Z,4.60
2022-08-27T19:43:39.846Z,4.72
2022-08-27T19:46:12.750Z,6.75
2022-08-27T19:48:39.301Z,4.40
2022-08-27T19:51:06.055Z,3.65
2022-08-27T19:53:32.715Z,6.38
2022-08-27T19:55:59.318Z,5.88
2022-08-27T19:58:25.851Z,5.07
2022-08-27T20:00:52.762Z,3.92
2022-08-27T20:03:19.568Z,6.10
2022-08-27T20:05:48.771Z,3.30
2022-08-27T20:08:15.368Z,5.40
2022-08-27T20:10:41.938Z,4.15
2022-08-27T20:13:08.515Z,12.02
2022-08-27T20:15:36.141Z,2.20
2022-08-27T20:18:06.000Z,4.03
2022-08-27T20:20:33.550Z,4.90
2022-08-27T20:23:02.900Z,5.78
2022-08-27T20:25:29.568Z,3.42
2022-08-27T20:27:56.884Z,3.20
2022-08-27T20:30:26.745Z,2.25
2022-08-27T20:32:53.440Z,4.60
2022-08-27T20:35:21.747Z,2.78
2022-08-27T20:37:48.568Z,2.25
2022-08-27T20:40:19.420Z,4.38
2022-08-27T20:42:46.048Z,4.47
2022-08-27T20:45:14.681Z,5.93
2022-08-27T20:47:43.346Z,5.03
2022-08-27T20:50:11.855Z,5.28
2022-08-27T20:52:39.466Z,4.38
2022-08-27T20:55:06.707Z,7.05
2022-08-27T20:57:33.323Z,5.18
2022-08-27T21:00:19.270Z,2.90
2022-08-27T21:02:46.885Z,6.70
2022-08-27T21:05:15.967Z,4.93
2022-08-27T21:07:42.557Z,4.28
2022-08-27T21:10:09.435Z,3.63
2022-08-27T21:12:36.151Z,7.05
2022-08-27T21:15:05.600Z,5.53
2022-08-27T21:17:32.235Z,2.85
2022-08-27T21:19:59.130Z,2.92
2022-08-27T21:22:27.027Z,2.85
2022-08-27T21:24:54.356Z,2.90
2022-08-27T21:27:21.728Z,8.82
2022-08-27T21:29:49.374Z,2.22
2022-08-27T21:32:16.913Z,2.35
2022-08-27T21:34:44.541Z,2.60
2022-08-27T21:37:13.599Z,3.17
2022-08-27T21:39:42.055Z,2.58
2022-08-27T21:42:10.476Z,6.47
2022-08-27T21:44:37.433Z,4.57
2022-08-27T21:47:04.826Z,6.32
2022-08-27T21:49:32.452Z,3.08
2022-08-27T21:52:04.798Z,2.83
2022-08-27T21:54:33.525Z,6.35
2022-08-27T21:57:00.732Z,4.15
2022-08-27T21:59:27.329Z,3.47
2022-08-27T22:02:00.643Z,2.28
2022-08-27T22:06:58.482Z,3.05
2022-08-27T22:09:25.353Z,2.80
2022-08-27T22:11:52.063Z,4.32
2022-08-27T22:14:18.724Z,3.20
2022-08-27T22:16:45.397Z,2.17
2022-08-27T22:19:11.954Z,1.85
2022-08-27T22:21:38.998Z,4.10
2022-08-27T22:24:05.967Z,3.30
2022-08-27T22:26:32.522Z,1.83
2022-08-27T22:28:59.449Z,1.88
2022-08-27T22:31:26.360Z,1.20
2022-08-27T22:33:53.579Z,3.25
2022-08-27T22:36:20.250Z,8.32
2022-08-27T22:38:47.634Z,1.77
2022-08-27T22:41:17.841Z,4.97
2022-08-27T22:43:45.599Z,3.88
2022-08-27T22:46:12.538Z,1.60
2022-08-27T22:48:39.362Z,2.03
2022-08-27T22:51:06.206Z,2.58
2022-08-27T22:53:36.406Z,2.05
2022-08-27T22:56:06.245Z,7.13
2022-08-27T22:58:32.856Z,7.47
2022-08-27T23:00:59.895Z,2.35
2022-08-27T23:03:26.526Z,1.83
2022-08-27T23:05:53.266Z,3.58
2022-08-27T23:08:20.621Z,4.53
2022-08-27T23:10:47.653Z,5.78
2022-08-27T23:13:14.411Z,3.58
2022-08-27T23:15:41.600Z,2.85
2022-08-27T23:18:08.693Z,3.95
2022-08-27T23:20:35.291Z,3.28
2022-08-27T23:23:02.715Z,2.67
2022-08-27T23:25:49.209Z,1.92
2022-08-27T23:28:16.142Z,2.08
2022-08-27T23:30:44.599Z,3.38
2022-08-27T23:33:12.903Z,3.85
2022-08-27T23:35:41.183Z,3.63
2022-08-27T23:38:07.862Z,1.50
2022-08-27T23:40:34.473Z,2.15
2022-08-27T23:43:01.289Z,1.25
2022-08-27T23:45:28.031Z,4.32
2022-08-27T23:47:54.571Z,1.58
2022-08-27T23:50:29.052Z,1.88
2022-08-27T23:53:03.406Z,2.28
2022-08-27T23:55:29.954Z,2.92
2022-08-27T23:57:57.823Z,5.88
